Time;durP1;ratioP1;P1;durP2;ratioP2;P2;SDS_P1;SDS_P2;PMS_P1;PMS_P2;Temp;Humidity;BMP_temperature;BMP_pressure;BME280_temperature;BME280_humidity;BME280_pressure;Samples;Min_cycle;Max_cycle;Signal;HPM_P1;HPM_P2
2022/07/07 00:01:47;;;;;;;3.13;1.77;;;19.40;49.40;;;18.53;52.87;96501.81;4961952;28;20036;-63
2022/07/07 00:04:12;;;;;;;3.53;1.20;;;19.30;49.20;;;18.50;52.89;96507.59;4962350;28;20058;-63
2022/07/07 00:06:38;;;;;;;3.58;1.42;;;19.20;49.50;;;18.47;51.93;96500.06;4958710;28;20058;-63
2022/07/07 00:09:04;;;;;;;4.55;1.65;;;19.30;49.30;;;18.44;52.81;96497.88;4928097;28;20114;-63
2022/07/07 00:11:30;;;;;;;3.78;1.40;;;19.30;49.90;;;18.43;52.68;96501.56;4960105;28;20724;-63
2022/07/07 00:13:55;;;;;;;3.22;1.17;;;19.20;49.30;;;18.36;52.42;96497.16;4949885;28;20031;-63
2022/07/07 00:16:22;;;;;;;6.20;1.50;;;19.10;50.10;;;18.33;53.28;96492.28;4928091;28;20038;-63
2022/07/07 00:18:47;;;;;;;4.47;1.60;;;19.10;50.00;;;18.30;53.53;96495.38;4945352;28;20570;-63
2022/07/07 00:21:13;;;;;;;2.78;1.42;;;19.10;49.80;;;18.29;52.65;96495.63;4945504;28;20530;-62
2022/07/07 00:23:39;;;;;;;3.53;1.40;;;19.10;50.10;;;18.26;53.42;96496.06;4945413;28;20113;-63
2022/07/07 00:26:05;;;;;;;2.67;1.40;;;19.10;49.90;;;18.22;52.68;96495.72;4948847;28;20498;-63
2022/07/07 00:28:31;;;;;;;2.72;1.35;;;19.10;49.70;;;18.19;53.41;96493.50;4962527;28;20462;-63
2022/07/07 00:30:57;;;;;;;2.17;1.33;;;19.10;50.50;;;18.16;53.34;96485.19;4947860;28;20055;-63
2022/07/07 00:33:23;;;;;;;3.65;1.58;;;19.00;50.10;;;18.12;53.04;96500.78;4933619;28;20045;-64
2022/07/07 00:35:48;;;;;;;2.45;1.52;;;18.90;50.10;;;18.07;52.77;96497.97;4955755;28;20414;-63
2022/07/07 00:38:14;;;;;;;4.00;1.70;;;18.80;50.40;;;18.02;53.36;96505.84;4964762;28;20122;-63
2022/07/07 00:40:40;;;;;;;2.47;1.40;;;18.80;50.50;;;17.94;52.83;96490.19;4964844;28;20110;-64
2022/07/07 00:43:05;;;;;;;3.72;1.85;;;18.70;50.10;;;17.90;53.11;96492.50;4966131;28;20066;-63
2022/07/07 00:45:31;;;;;;;3.55;1.60;;;18.70;50.70;;;17.89;53.57;96495.38;4952733;28;20114;-63
2022/07/07 00:48:00;;;;;;;6.05;1.80;;;18.60;50.50;;;17.84;53.50;96496.03;4966603;28;20081;-63
2022/07/07 00:50:26;;;;;;;4.72;1.75;;;18.60;50.40;;;17.83;53.43;96501.56;4949269;28;20446;-63
2022/07/07 00:52:52;;;;;;;3.38;1.50;;;18.60;50.90;;;17.74;53.79;96499.25;4932445;28;20229;-64
2022/07/07 00:55:18;;;;;;;3.42;1.85;;;18.50;51.30;;;17.69;53.83;96496.44;4965100;28;21922;-63
2022/07/07 00:57:43;;;;;;;4.55;1.73;;;18.60;51.30;;;17.65;54.09;96505.88;4946967;28;20035;-63
2022/07/07 01:00:12;;;;;;;2.58;1.85;;;18.40;51.50;;;17.61;54.12;96498.53;4945295;28;20130;-63
2022/07/07 01:02:38;;;;;;;3.38;1.60;;;18.40;51.60;;;17.55;54.51;96500.25;4946935;28;20038;-63
2022/07/07 01:05:06;;;;;;;4.82;1.60;;;18.30;51.70;;;17.50;54.84;96491.31;4946903;28;20077;-64
2022/07/07 01:07:33;;;;;;;2.83;1.67;;;18.30;51.70;;;17.44;54.35;96493.03;4945595;28;20164;-63
2022/07/07 01:09:59;;;;;;;3.75;1.90;;;18.10;51.60;;;17.36;54.99;96493.31;4982390;28;20035;-64
2022/07/07 01:12:25;;;;;;;2.95;2.03;;;18.10;51.70;;;17.30;54.69;96494.22;4949868;28;20610;-63
2022/07/07 01:14:51;;;;;;;3.92;1.80;;;18.10;51.80;;;17.26;55.38;96487.72;4948266;28;20170;-63
2022/07/07 01:17:16;;;;;;;4.75;1.88;;;18.10;52.30;;;17.21;55.21;96487.56;4948551;28;20435;-63
2022/07/07 01:19:42;;;;;;;3.25;1.67;;;18.00;52.10;;;17.17;54.82;96489.84;4961121;28;20090;-64
2022/07/07 01:22:14;;;;;;;2.40;1.77;;;17.90;52.30;;;17.11;55.19;96488.88;4945685;28;20439;-63
2022/07/07 01:24:40;;;;;;;4.00;1.85;;;17.80;52.10;;;17.07;54.92;96493.00;4934348;28;20042;-63
2022/07/07 01:27:14;;;;;;;4.20;1.80;;;17.80;52.10;;;17.01;55.71;96485.94;4961998;28;20541;-65
2022/07/07 01:29:43;;;;;;;4.60;1.70;;;17.80;52.30;;;16.99;55.43;96490.66;4944773;28;20041;-64
2022/07/07 01:32:09;;;;;;;2.67;1.65;;;17.80;52.70;;;16.98;55.61;96489.03;4947949;28;20031;-64
2022/07/07 01:34:45;;;;;;;3.78;2.10;;;17.80;52.80;;;16.96;57.05;96485.75;4932194;28;20046;-63
2022/07/07 01:37:11;;;;;;;2.95;1.95;;;17.70;52.90;;;16.91;56.52;96477.63;4945866;28;20038;-63
2022/07/07 01:39:39;;;;;;;6.93;2.05;;;17.70;53.20;;;16.89;56.02;96479.69;4946698;28;20035;-63
2022/07/07 01:42:05;;;;;;;4.90;1.95;;;17.70;53.40;;;16.87;55.83;96481.75;4949124;28;20104;-63
2022/07/07 01:44:32;;;;;;;3.92;2.05;;;17.70;52.70;;;16.82;55.88;96474.44;4964832;28;20623;-63
2022/07/07 01:46:58;;;;;;;3.10;1.52;;;17.60;52.80;;;16.80;56.20;96481.81;4959563;28;20040;-64
2022/07/07 01:49:24;;;;;;;4.15;2.00;;;17.60;53.10;;;16.77;55.79;96476.97;4950880;28;20027;-65
2022/07/07 01:51:50;;;;;;;2.63;1.80;;;17.60;52.60;;;16.75;56.58;96480.88;4932522;28;20063;-63
2022/07/07 01:54:16;;;;;;;2.28;1.67;;;17.60;53.20;;;16.74;56.62;96481.88;4963716;28;20073;-63
2022/07/07 01:56:42;;;;;;;2.90;1.80;;;17.60;53.40;;;16.71;56.80;96490.28;4947414;28;20045;-63
2022/07/07 01:59:08;;;;;;;3.78;1.70;;;17.60;53.70;;;16.69;57.00;96484.38;4964293;28;20446;-63
2022/07/07 02:01:35;;;;;;;4.40;1.88;;;17.60;53.80;;;16.63;57.46;96485.22;4949560;28;20026;-64
2022/07/07 02:04:00;;;;;;;4.43;2.10;;;17.50;53.90;;;16.59;57.56;96492.00;4963288;28;20066;-64
2022/07/07 02:06:26;;;;;;;4.63;1.90;;;17.40;54.00;;;16.54;56.95;96487.34;4950082;28;20130;-63
2022/07/07 02:08:52;;;;;;;3.10;1.90;;;17.30;54.00;;;16.51;57.29;96480.59;4960765;28;20502;-64
2022/07/07 02:11:18;;;;;;;3.67;2.00;;;17.40;54.40;;;16.49;57.44;96480.00;4951446;28;20035;-63
2022/07/07 02:13:47;;;;;;;4.03;2.00;;;17.30;54.50;;;16.48;57.95;96488.19;4963251;28;20038;-64
2022/07/07 02:16:13;;;;;;;3.38;1.83;;;17.30;54.50;;;16.44;58.56;96485.16;4964390;28;20031;-64
2022/07/07 02:18:39;;;;;;;3.80;2.08;;;17.30;55.20;;;16.42;58.48;96484.56;4946728;28;20098;-63
2022/07/07 02:21:08;;;;;;;3.70;1.88;;;17.20;54.80;;;16.41;58.42;96479.47;4963335;28;20039;-63
2022/07/07 02:23:34;;;;;;;3.33;1.65;;;17.30;55.10;;;16.37;58.36;96480.94;4947219;28;20049;-64
2022/07/07 02:26:00;;;;;;;5.72;2.00;;;17.20;55.10;;;16.29;59.17;96474.03;4929762;28;20046;-63
2022/07/07 02:28:26;;;;;;;5.75;2.15;;;17.10;55.10;;;16.24;59.48;96477.31;4944891;28;20117;-63
2022/07/07 02:30:56;;;;;;;3.17;1.92;;;17.10;55.50;;;16.23;59.07;96483.66;4929518;28;20039;-64
2022/07/07 02:33:22;;;;;;;5.05;2.20;;;17.00;55.30;;;16.17;58.40;96483.72;4948370;28;20035;-63
2022/07/07 02:35:48;;;;;;;8.68;3.63;;;17.00;54.80;;;16.12;58.56;96478.25;4944266;28;20350;-63
2022/07/07 02:38:14;;;;;;;7.22;4.10;;;16.90;55.20;;;16.12;59.02;96476.41;4931115;28;20663;-63
2022/07/07 02:40:40;;;;;;;3.40;2.20;;;17.00;55.60;;;16.09;58.79;96476.03;4944828;28;20032;-64
2022/07/07 02:43:06;;;;;;;4.78;2.15;;;16.90;55.20;;;16.06;59.32;96476.44;4947057;28;20039;-63
2022/07/07 02:45:31;;;;;;;4.45;2.55;;;16.90;55.50;;;16.03;59.96;96476.88;4964322;28;20031;-63
2022/07/07 02:47:57;;;;;;;20.50;14.13;;;16.80;56.70;;;16.03;59.93;96479.50;4929264;28;20054;-63
2022/07/07 02:50:23;;;;;;;6.25;2.65;;;16.90;56.70;;;16.03;59.56;96479.50;4946832;28;20166;-64
2022/07/07 02:52:49;;;;;;;4.00;2.38;;;16.90;55.50;;;16.00;59.30;96475.44;4949298;28;20134;-65
2022/07/07 02:55:14;;;;;;;9.48;5.50;;;16.90;55.50;;;16.01;59.63;96476.25;4967235;28;20097;-63
2022/07/07 02:57:40;;;;;;;10.50;5.65;;;16.90;55.70;;;16.01;59.58;96476.25;4943358;28;20075;-63
2022/07/07 03:00:07;;;;;;;5.18;2.60;;;17.00;55.40;;;15.97;59.74;96462.63;4946303;28;20039;-64
2022/07/07 03:02:34;;;;;;;4.15;2.47;;;16.80;55.20;;;15.96;59.04;96468.13;4964624;28;20126;-63
2022/07/07 03:05:00;;;;;;;3.63;2.20;;;16.80;55.40;;;15.93;60.62;96470.19;4945480;28;22302;-63
2022/07/07 03:07:25;;;;;;;3.60;2.10;;;16.80;56.10;;;15.93;60.60;96464.06;4948224;28;20062;-63
2022/07/07 03:09:51;;;;;;;4.55;2.10;;;16.90;56.40;;;15.93;59.95;96470.19;4944669;28;20063;-63
2022/07/07 03:12:17;;;;;;;4.05;2.20;;;16.90;56.30;;;15.90;60.44;96461.84;4945698;28;20045;-63
2022/07/07 03:14:43;;;;;;;5.78;2.20;;;16.80;56.10;;;15.88;59.74;96467.38;4943766;28;20415;-63
2022/07/07 03:17:08;;;;;;;7.22;4.13;;;16.70;56.30;;;15.89;60.03;96470.84;4942804;28;20130;-63
2022/07/07 03:19:39;;;;;;;16.25;12.30;;;16.80;56.60;;;15.87;61.18;96459.63;4943634;28;20526;-63
2022/07/07 03:22:04;;;;;;;7.63;3.65;;;16.80;56.80;;;15.85;60.10;96457.19;4947259;28;20648;-63
2022/07/07 03:24:31;;;;;;;4.47;3.08;;;16.70;56.20;;;15.86;60.85;96458.81;4961645;28;20117;-63
2022/07/07 03:26:58;;;;;;;3.45;1.98;;;16.80;56.80;;;15.89;61.33;96447.78;4945876;28;20142;-63
2022/07/07 03:29:25;;;;;;;3.22;2.28;;;16.80;56.10;;;15.86;60.81;96447.41;4946720;28;20057;-64
2022/07/07 03:31:51;;;;;;;4.38;3.10;;;16.80;56.30;;;15.84;61.92;96452.91;4943090;28;20050;-63
2022/07/07 03:34:16;;;;;;;3.50;2.30;;;16.80;57.30;;;15.86;61.12;96453.50;4946103;28;20062;-64
2022/07/07 03:36:42;;;;;;;3.00;2.25;;;16.80;56.90;;;15.83;62.05;96450.44;4959448;28;20058;-63
2022/07/07 03:39:08;;;;;;;4.75;2.40;;;16.70;57.00;;;15.82;61.19;96449.63;4946440;28;20058;-64
2022/07/07 03:41:33;;;;;;;3.58;1.90;;;16.70;57.30;;;15.81;62.32;96445.34;4949509;28;20031;-63
2022/07/07 03:43:59;;;;;;;3.55;1.90;;;16.70;57.00;;;15.82;61.13;96452.28;4954565;28;20039;-63
2022/07/07 03:46:25;;;;;;;4.55;2.00;;;16.70;57.10;;;15.76;62.22;96447.03;4957677;28;20506;-63
2022/07/07 03:48:51;;;;;;;3.83;2.20;;;16.60;57.30;;;15.77;61.55;96446.00;4944409;28;20048;-63
2022/07/07 03:51:17;;;;;;;5.45;2.20;;;16.70;57.70;;;15.77;62.23;96452.13;4961598;28;20035;-65
2022/07/07 03:53:42;;;;;;;4.47;2.08;;;16.70;57.70;;;15.80;62.24;96445.56;4965326;28;20050;-68
2022/07/07 03:56:08;;;;;;;3.45;2.30;;;16.80;57.70;;;15.80;62.10;96448.22;4945921;28;20039;-64
2022/07/07 03:58:34;;;;;;;3.53;2.20;;;16.80;57.40;;;15.80;62.76;96453.53;4945214;28;20113;-66
2022/07/07 04:01:00;;;;;;;4.90;2.00;;;16.80;57.80;;;15.82;61.99;96460.25;4933604;28;20098;-67
2022/07/07 04:03:26;;;;;;;3.50;1.92;;;16.80;57.50;;;15.82;62.56;96451.47;4948184;28;20077;-64
2022/07/07 04:05:51;;;;;;;3.75;2.10;;;16.80;57.50;;;15.84;62.14;96450.25;4964822;28;20035;-64
2022/07/07 04:08:17;;;;;;;4.60;2.38;;;16.90;57.60;;;15.87;63.05;96460.44;4947722;28;20121;-64
2022/07/07 04:10:43;;;;;;;4.35;2.15;;;16.90;57.50;;;15.87;63.17;96449.84;4958031;28;20031;-64
2022/07/07 04:13:09;;;;;;;6.07;2.42;;;16.90;57.80;;;15.87;62.76;96455.13;4985361;28;20097;-64
2022/07/07 04:15:35;;;;;;;3.40;2.28;;;16.80;57.90;;;15.87;63.41;96455.13;4964706;28;20035;-64
2022/07/07 04:18:01;;;;;;;6.78;2.28;;;16.80;57.70;;;15.84;63.43;96452.91;4983872;28;20043;-63
2022/07/07 04:20:29;;;;;;;7.50;2.38;;;16.80;58.10;;;15.80;62.45;96457.00;4968533;28;20042;-64
2022/07/07 04:22:56;;;;;;;4.40;2.40;;;16.70;57.90;;;15.77;62.67;96460.06;4948858;28;20034;-64
2022/07/07 04:25:21;;;;;;;6.18;2.00;;;16.70;58.50;;;15.76;63.83;96458.44;4953386;28;20027;-64
2022/07/07 04:27:47;;;;;;;6.03;2.45;;;16.70;58.60;;;15.74;63.10;96463.16;4962279;28;20117;-63
2022/07/07 04:30:13;;;;;;;9.70;4.93;;;16.60;58.70;;;15.75;63.81;96454.16;4980095;28;20058;-64
2022/07/07 04:32:39;;;;;;;6.65;2.80;;;16.80;59.00;;;15.73;63.12;96456.22;4960595;28;20122;-64
2022/07/07 04:35:05;;;;;;;3.55;2.20;;;16.60;58.90;;;15.69;63.22;96455.03;4950484;28;21014;-64
2022/07/07 04:37:31;;;;;;;3.03;2.30;;;16.60;59.10;;;15.70;64.14;96448.69;4938403;28;20027;-64
2022/07/07 04:39:57;;;;;;;5.90;2.25;;;16.70;59.00;;;15.70;63.91;96440.75;4962838;28;20038;-64
2022/07/07 04:42:22;;;;;;;4.95;2.50;;;16.70;59.20;;;15.70;64.53;96447.88;4948784;28;20038;-65
2022/07/07 04:44:48;;;;;;;4.43;2.58;;;16.70;59.10;;;15.72;64.97;96451.94;4962786;28;20722;-65
2022/07/07 04:47:14;;;;;;;4.50;3.00;;;16.70;59.10;;;15.73;65.19;96456.22;4985665;28;20035;-65
2022/07/07 04:49:39;;;;;;;4.68;2.60;;;16.70;59.50;;;15.75;65.07;96440.91;4936012;28;20071;-65
2022/07/07 04:52:05;;;;;;;4.35;2.70;;;16.80;59.50;;;15.78;66.14;96453.75;4937361;28;20042;-69
2022/07/07 04:54:31;;;;;;;5.43;2.50;;;16.80;59.90;;;15.83;65.06;96456.56;4952537;28;20045;-70
2022/07/07 04:56:57;;;;;;;3.08;2.38;;;16.90;60.10;;;15.85;65.95;96454.53;4950033;28;20066;-69
2022/07/07 04:59:23;;;;;;;4.78;2.40;;;16.90;59.80;;;15.88;65.56;96443.50;4952425;28;21056;-72
2022/07/07 05:01:48;;;;;;;3.70;2.20;;;17.00;59.20;;;15.93;65.46;96456.94;4963351;28;20109;-66
2022/07/07 05:04:14;;;;;;;4.05;2.65;;;17.10;59.40;;;15.95;64.92;96453.25;4950802;28;20518;-69
2022/07/07 05:06:40;;;;;;;5.22;2.47;;;17.10;59.40;;;15.98;65.78;96450.97;4962684;28;20444;-67
2022/07/07 05:09:05;;;;;;;2.97;2.30;;;17.10;59.70;;;16.04;66.20;96454.59;4951843;28;20043;-65
2022/07/07 05:11:31;;;;;;;3.85;2.03;;;17.20;59.40;;;16.03;65.72;96450.31;4949861;28;20039;-74
2022/07/07 05:13:57;;;;;;;4.95;2.22;;;17.10;58.90;;;16.06;65.29;96457.84;4963260;28;20487;-69
2022/07/07 05:16:23;;;;;;;5.43;2.25;;;17.20;59.10;;;16.08;65.36;96456.63;4935748;28;20070;-72
2022/07/07 05:18:49;;;;;;;4.22;2.20;;;17.20;58.30;;;16.07;65.10;96465.63;4965436;28;20521;-68
2022/07/07 05:21:14;;;;;;;5.45;2.58;;;17.20;59.00;;;16.11;64.51;96466.00;4952536;28;20565;-70
2022/07/07 05:23:40;;;;;;;3.42;2.20;;;17.30;58.80;;;16.17;64.75;96459.84;4951118;28;20042;-70
2022/07/07 05:26:06;;;;;;;2.63;1.92;;;17.50;58.20;;;16.23;65.20;96451.00;4967163;28;20126;-68
2022/07/07 05:28:32;;;;;;;4.13;2.00;;;17.60;58.80;;;16.30;65.85;96454.44;4952189;28;20121;-69
2022/07/07 05:30:57;;;;;;;3.78;2.33;;;17.60;58.40;;;16.39;65.36;96453.13;4956831;28;20067;-70
2022/07/07 05:33:23;;;;;;;5.35;2.47;;;17.70;58.20;;;16.44;65.00;96460.44;4949699;28;20035;-70
2022/07/07 05:35:49;;;;;;;5.28;2.50;;;17.70;57.90;;;16.43;64.77;96456.97;4966791;28;20485;-70
2022/07/07 05:38:15;;;;;;;4.78;2.55;;;17.60;57.40;;;16.43;64.56;96454.31;4951522;28;20514;-69
2022/07/07 05:40:40;;;;;;;4.68;2.60;;;17.60;57.20;;;16.45;64.64;96449.59;4945745;28;20074;-71
2022/07/07 05:43:06;;;;;;;7.43;2.40;;;17.70;57.40;;;16.50;64.27;96449.75;4918668;28;20031;-70
2022/07/07 05:45:32;;;;;;;6.53;2.20;;;17.70;56.50;;;16.52;63.96;96453.03;4936667;28;20057;-71
2022/07/07 05:47:58;;;;;;;3.92;2.15;;;17.80;56.90;;;16.56;63.22;96447.28;4966013;28;20514;-68
2022/07/07 05:50:24;;;;;;;3.92;1.92;;;17.80;56.10;;;16.59;63.79;96454.81;4951982;28;20549;-68
2022/07/07 05:52:50;;;;;;;3.80;2.05;;;17.90;57.20;;;16.66;63.71;96447.59;4957558;28;20036;-69
2022/07/07 05:55:15;;;;;;;4.00;2.13;;;18.00;56.90;;;16.74;63.66;96452.66;4952083;28;20573;-63
2022/07/07 05:57:41;;;;;;;7.05;2.30;;;18.10;56.60;;;16.80;63.57;96449.94;4965957;28;20672;-68
2022/07/07 06:00:07;;;;;;;3.78;1.95;;;18.20;56.30;;;16.84;62.72;96452.97;4961430;28;20138;-63
2022/07/07 06:02:33;;;;;;;3.85;2.40;;;18.20;55.10;;;16.90;63.19;96449.44;4931141;28;20082;-72
2022/07/07 06:04:59;;;;;;;4.18;2.00;;;18.30;55.30;;;16.94;62.95;96447.94;4955316;28;20454;-70
2022/07/07 06:07:25;;;;;;;3.47;2.17;;;18.30;55.30;;;17.03;63.37;96454.63;4951195;28;20030;-69
2022/07/07 06:09:50;;;;;;;3.22;1.90;;;18.50;56.20;;;17.06;62.36;96448.03;4966387;28;20035;-67
2022/07/07 06:12:16;;;;;;;2.53;1.77;;;18.40;55.00;;;17.10;62.46;96455.34;4934956;28;20039;-69
2022/07/07 06:14:42;;;;;;;4.53;1.85;;;18.40;55.10;;;17.12;62.05;96447.97;4963223;28;20106;-70
2022/07/07 06:17:09;;;;;;;5.55;1.90;;;18.30;55.00;;;17.13;61.43;96457.56;4966369;28;20106;-72
2022/07/07 06:19:35;;;;;;;5.03;2.20;;;18.40;54.40;;;17.11;61.71;96449.00;4932471;28;20085;-69
2022/07/07 06:22:01;;;;;;;5.00;2.13;;;18.30;55.10;;;17.08;61.57;96457.41;4965845;28;20069;-68
2022/07/07 06:24:26;;;;;;;4.82;1.83;;;18.20;54.30;;;17.08;60.88;96460.09;4949576;28;20038;-64
2022/07/07 06:26:52;;;;;;;3.78;2.03;;;18.20;54.60;;;17.07;61.69;96455.81;4963839;28;20090;-66
2022/07/07 06:29:18;;;;;;;2.90;1.83;;;18.30;55.40;;;17.10;61.39;96454.53;4984216;28;20258;-62
2022/07/07 06:31:44;;;;;;;3.08;1.70;;;18.40;54.70;;;17.11;61.03;96462.28;4969028;28;20105;-64
2022/07/07 06:34:09;;;;;;;2.85;2.03;;;18.40;54.80;;;17.14;61.15;96461.84;4949074;28;20055;-70
2022/07/07 06:36:35;;;;;;;4.47;1.67;;;18.50;55.00;;;17.16;61.98;96464.28;4951906;28;20097;-65
2022/07/07 06:39:01;;;;;;;5.05;2.03;;;18.40;55.00;;;17.18;61.59;96464.06;4966201;28;20038;-62
2022/07/07 06:41:37;;;;;;;6.25;2.20;;;18.50;55.60;;;17.23;61.78;96451.75;4935438;28;20452;-69
2022/07/07 06:44:04;;;;;;;5.05;1.90;;;18.60;55.00;;;17.27;61.22;96458.25;4965703;28;20511;-63
2022/07/07 06:46:30;;;;;;;5.10;2.20;;;18.60;54.60;;;17.37;62.52;96465.69;4950527;28;20499;-70
2022/07/07 06:48:56;;;;;;;5.20;2.05;;;18.80;54.50;;;17.43;61.34;96465.63;4939162;28;20126;-69
2022/07/07 06:51:22;;;;;;;6.32;1.85;;;18.90;53.10;;;17.50;61.36;96454.91;4966770;28;20031;-69
2022/07/07 06:53:48;;;;;;;4.40;1.80;;;19.00;53.30;;;17.61;61.33;96462.13;4965101;28;20058;-65
2022/07/07 06:56:13;;;;;;;3.78;1.60;;;19.20;53.80;;;17.71;60.37;96459.78;4964508;28;20043;-71
2022/07/07 06:58:39;;;;;;;6.55;1.88;;;19.30;52.90;;;17.78;60.86;96465.00;4944665;28;20201;-68
2022/07/07 07:01:05;;;;;;;3.50;1.90;;;19.30;54.10;;;17.87;59.55;96460.97;4963074;28;20085;-68
2022/07/07 07:03:30;;;;;;;3.05;1.90;;;19.30;51.40;;;17.89;59.20;96460.78;4963393;28;20465;-67
2022/07/07 07:05:56;;;;;;;2.85;1.80;;;19.40;51.70;;;17.94;59.62;96455.59;4963786;28;20073;-68
2022/07/07 07:08:22;;;;;;;3.72;1.90;;;19.50;52.20;;;18.03;59.78;96454.22;4948708;28;20046;-70
2022/07/07 07:10:48;;;;;;;5.72;1.70;;;19.60;52.10;;;18.06;59.43;96454.56;4931120;28;20186;-69
2022/07/07 07:13:14;;;;;;;3.65;1.80;;;19.60;51.90;;;18.11;58.88;96453.09;4934326;28;20051;-69
2022/07/07 07:15:39;;;;;;;3.70;1.85;;;19.60;51.50;;;18.11;58.05;96451.25;4936769;28;20098;-69
2022/07/07 07:18:06;;;;;;;2.33;1.60;;;19.50;50.70;;;18.15;58.67;96457.75;4957859;28;20161;-69
2022/07/07 07:20:32;;;;;;;4.22;1.67;;;19.60;51.80;;;18.16;57.96;96454.03;4932852;28;20066;-70
2022/07/07 07:22:58;;;;;;;3.38;1.77;;;19.50;51.10;;;18.21;57.92;96451.50;4963859;28;20066;-68
2022/07/07 07:25:24;;;;;;;2.67;1.60;;;19.60;50.80;;;18.24;57.80;96456.34;4933416;28;20030;-70
2022/07/07 07:27:50;;;;;;;2.85;1.67;;;19.70;51.00;;;18.26;57.41;96454.28;4939886;28;20113;-71
2022/07/07 07:30:15;;;;;;;3.50;1.77;;;19.80;50.90;;;18.32;58.17;96455.22;4947325;28;20586;-70
2022/07/07 07:32:42;;;;;;;7.15;2.13;;;19.80;52.00;;;18.39;57.87;96455.13;4946136;28;20628;-70
2022/07/07 07:35:08;;;;;;;3.83;1.55;;;19.80;51.00;;;18.36;58.08;96462.53;4950239;28;20479;-71
2022/07/07 07:37:34;;;;;;;3.30;1.67;;;19.80;51.90;;;18.40;58.79;96464.75;4947854;28;20031;-70
2022/07/07 07:40:00;;;;;;;3.10;1.45;;;19.80;51.90;;;18.45;58.19;96451.53;4932368;28;20106;-71
2022/07/07 07:42:26;;;;;;;4.43;1.67;;;20.10;51.60;;;18.53;58.52;96456.50;4950510;28;20062;-70
2022/07/07 07:45:10;;;;;;;3.50;1.55;;;20.20;51.20;;;18.64;57.74;96455.75;4966591;28;20043;-70
2022/07/07 07:47:41;;;;;;;4.28;1.35;;;20.40;50.60;;;18.72;58.07;96458.06;4967181;28;20347;-70
2022/07/07 07:50:08;;;;;;;3.65;1.50;;;20.50;50.00;;;18.88;57.21;96456.56;4970956;28;20043;-71
2022/07/07 07:52:34;;;;;;;3.22;1.73;;;20.60;49.50;;;18.98;57.94;96456.78;4952688;28;20035;-69
2022/07/07 07:55:00;;;;;;;5.38;1.85;;;20.70;49.40;;;19.11;57.09;96455.75;4968791;28;20069;-67
2022/07/07 07:57:26;;;;;;;5.50;1.50;;;20.80;48.90;;;19.22;57.28;96457.56;4938224;28;20126;-68
2022/07/07 07:59:51;;;;;;;3.53;1.50;;;21.00;49.00;;;19.29;55.90;96458.28;4954543;28;20094;-69
2022/07/07 08:02:17;;;;;;;6.03;1.55;;;20.90;48.40;;;19.36;56.22;96453.63;4949424;28;20143;-71
2022/07/07 08:04:43;;;;;;;4.40;1.98;;;20.90;48.00;;;19.43;55.35;96454.28;4938766;28;20038;-72
2022/07/07 08:07:08;;;;;;;1.90;1.20;;;21.00;47.30;;;19.51;55.45;96451.28;4936373;28;20596;-71
2022/07/07 08:09:34;;;;;;;3.75;1.40;;;21.10;48.00;;;19.61;54.59;96457.88;4969087;28;20459;-71
2022/07/07 08:12:00;;;;;;;5.55;1.50;;;21.30;47.60;;;19.75;55.70;96445.88;4949072;28;20043;-69
2022/07/07 08:14:26;;;;;;;4.20;1.25;;;21.60;48.20;;;19.85;54.29;96446.06;4969190;28;20521;-72
2022/07/07 08:16:51;;;;;;;2.42;1.20;;;21.50;45.60;;;19.89;54.42;96447.19;4952846;28;20687;-70
2022/07/07 08:19:19;;;;;;;3.08;1.30;;;21.50;46.30;;;20.00;54.40;96443.69;4966638;28;20063;-71
2022/07/07 08:21:46;;;;;;;2.17;1.15;;;21.90;47.20;;;20.16;54.69;96452.78;4938287;28;20502;-71
2022/07/07 08:24:13;;;;;;;2.95;1.30;;;22.40;46.10;;;20.38;53.57;96443.00;4953103;28;20118;-71
2022/07/07 08:26:39;;;;;;;16.90;1.60;;;22.90;45.10;;;20.67;54.07;96443.75;4952832;28;20049;-70
2022/07/07 08:29:05;;;;;;;3.47;1.20;;;23.50;44.60;;;21.03;52.70;96436.25;4952508;28;20602;-70
2022/07/07 08:31:31;;;;;;;2.78;1.00;;;24.30;41.40;;;21.30;51.54;96428.34;4936599;28;20399;-71
2022/07/07 08:33:57;;;;;;;2.78;1.20;;;24.30;40.70;;;21.55;51.16;96433.22;4968963;28;20057;-70
2022/07/07 08:36:23;;;;;;;3.40;1.05;;;24.20;39.90;;;21.71;50.55;96430.44;4953056;28;20035;-71
2022/07/07 08:38:49;;;;;;;5.45;1.38;;;24.30;41.30;;;21.95;49.75;96438.19;4939043;28;20557;-72
2022/07/07 08:41:15;;;;;;;3.03;1.13;;;24.60;39.40;;;22.14;49.71;96446.69;4935590;28;20035;-70
2022/07/07 08:43:41;;;;;;;2.42;1.00;;;24.80;40.50;;;22.36;49.90;96455.50;4951576;28;20046;-69
2022/07/07 08:46:08;;;;;;;3.90;1.00;;;25.10;40.60;;;22.54;48.83;96441.72;4968200;28;20043;-71
2022/07/07 08:48:34;;;;;;;3.13;1.00;;;25.10;40.00;;;22.72;48.06;96450.44;4935129;28;20049;-72
2022/07/07 08:51:01;;;;;;;2.97;0.90;;;25.10;39.90;;;22.78;48.11;96452.88;4946482;28;20034;-71
2022/07/07 08:53:29;;;;;;;1.92;1.02;;;24.90;40.10;;;22.72;47.39;96447.75;4953965;28;20168;-70
2022/07/07 08:55:55;;;;;;;4.38;0.90;;;24.50;40.20;;;22.77;47.19;96442.41;4953735;28;20035;-71
2022/07/07 08:58:21;;;;;;;4.10;1.10;;;24.70;40.00;;;22.83;47.44;96444.09;4968450;28;20062;-71
2022/07/07 09:00:47;;;;;;;2.72;0.93;;;24.60;41.50;;;22.79;47.08;96443.75;4951869;28;20149;-72
2022/07/07 09:03:13;;;;;;;3.50;1.10;;;24.50;40.00;;;22.76;46.96;96446.16;4947866;28;20031;-70
2022/07/07 09:05:39;;;;;;;2.17;1.00;;;24.50;40.80;;;22.73;47.60;96449.34;4965554;28;20136;-70
2022/07/07 09:08:21;;;;;;;3.50;1.00;;;24.40;41.40;;;22.70;45.24;96444.50;4952211;28;20039;-70
2022/07/07 09:10:47;;;;;;;4.95;1.08;;;24.10;39.60;;;22.59;46.61;96443.59;4943381;28;20039;-72
2022/07/07 09:13:26;;;;;;;2.55;1.00;;;24.00;40.80;;;22.47;46.32;96451.03;4948110;28;20455;-70
2022/07/07 09:15:54;;;;;;;4.90;0.85;;;23.80;41.50;;;22.36;46.63;96449.31;4963007;28;20038;-70
2022/07/07 09:18:36;;;;;;;3.72;1.00;;;23.60;41.40;;;22.23;45.13;96450.56;4935929;28;20042;-71
2022/07/07 09:21:04;;;;;;;4.20;0.80;;;23.50;41.00;;;22.17;46.58;96451.56;4949898;28;20038;-70
2022/07/07 09:23:30;;;;;;;3.13;0.90;;;23.60;41.90;;;22.11;46.27;96457.94;4953790;28;20038;-71
2022/07/07 09:25:56;;;;;;;3.22;0.90;;;23.60;42.20;;;22.10;47.13;96461.66;4951027;28;20220;-64
2022/07/07 09:28:23;;;;;;;2.97;1.13;;;23.70;41.50;;;22.08;47.13;96455.75;4951151;28;20491;-65
2022/07/07 09:30:48;;;;;;;2.90;0.70;;;23.60;41.80;;;22.04;47.24;96452.78;4940615;28;20039;-69
2022/07/07 09:33:19;;;;;;;9.45;1.90;;;23.50;42.20;;;22.00;47.57;96451.66;4951522;28;20066;-69
2022/07/07 09:38:31;;;;;;;2.10;0.90;;;23.40;42.20;;;21.88;47.67;96448.28;4950352;28;20361;-71
2022/07/07 09:41:04;;;;;;;4.38;1.00;;;23.30;42.60;;;21.83;47.07;96448.25;4952513;28;20145;-71
2022/07/07 09:43:38;;;;;;;2.78;0.98;;;23.30;42.10;;;21.84;47.83;96453.34;4951659;28;20038;-71
2022/07/07 09:46:29;;;;;;;5.88;0.98;;;23.50;42.70;;;21.81;48.03;96456.53;4948868;28;20038;-71
2022/07/07 09:48:56;;;;;;;;;;;23.40;42.80;;;21.71;48.15;96451.84;4966721;28;20159;-71
2022/07/07 09:51:30;;;;;;;3.53;0.95;;;23.20;43.10;;;21.60;48.89;96462.72;4950164;28;19919;-71
2022/07/07 09:54:25;;;;;;;3.63;1.05;;;22.90;44.00;;;21.45;47.94;96459.84;4962765;28;20094;-71
2022/07/07 09:56:51;;;;;;;3.53;1.00;;;22.60;44.30;;;21.31;47.95;96467.44;4934006;28;20034;-70
2022/07/07 09:59:21;;;;;;;1.60;0.70;;;22.40;43.90;;;21.19;48.47;96456.00;4964306;28;20074;-69
2022/07/07 10:01:47;;;;;;;4.55;1.15;;;22.30;45.00;;;21.08;49.48;96455.06;4950675;28;20030;-69
2022/07/07 10:04:17;;;;;;;4.22;1.40;;;22.20;45.70;;;21.01;50.86;96459.75;4935004;28;20031;-71
2022/07/07 10:06:43;;;;;;;2.42;1.15;;;22.10;48.40;;;20.91;52.32;96460.44;4952250;28;20038;-66
2022/07/07 10:09:10;;;;;;;1.83;0.98;;;22.00;50.60;;;20.80;52.86;96455.97;4966770;28;20110;-68
2022/07/07 10:11:50;;;;;;;2.33;0.95;;;21.90;49.90;;;20.71;53.97;96462.78;4949537;28;20089;-67
2022/07/07 10:14:24;;;;;;;3.17;1.08;;;21.90;49.30;;;20.67;55.09;96480.38;4950238;28;20114;-70
2022/07/07 10:16:51;;;;;;;4.03;1.10;;;22.00;50.20;;;20.69;54.80;96480.94;4942718;28;20104;-69
2022/07/07 10:19:22;;;;;;;2.47;1.00;;;22.20;50.40;;;20.83;55.06;96484.09;4947214;28;20069;-71
2022/07/07 10:21:50;;;;;;;5.70;1.13;;;22.60;48.70;;;21.07;54.81;96481.00;4950310;28;20038;-72